createdAt,value
2024-04-12T00:01:43.781Z,102070.34
2024-04-12T00:04:11.713Z,102072.44
2024-04-12T00:06:46.449Z,102067.41
2024-04-12T00:09:19.282Z,102063.63
2024-04-12T00:11:54.589Z,102063.69
2024-04-12T00:14:23.143Z,102057.25
2024-04-12T00:16:54.281Z,102056.97
2024-04-12T00:19:22.542Z,102054.81
2024-04-12T00:21:57.430Z,102054.22
2024-04-12T00:24:26.134Z,102052.91
2024-04-12T00:26:57.713Z,102055.53
2024-04-12T00:29:29.278Z,102060.09
2024-04-12T00:32:05.506Z,102050.03
2024-04-12T00:34:38.823Z,102062.16
2024-04-12T00:37:16.914Z,102057.97
2024-04-12T00:39:50.738Z,102059.75
2024-04-12T00:42:27.319Z,102062.25
2024-04-12T00:44:55.810Z,102062.97
2024-04-12T00:47:29.816Z,102059.59
2024-04-12T00:49:57.657Z,102068.13
2024-04-12T00:52:34.658Z,102068.28
2024-04-12T00:55:08.536Z,102069.53
2024-04-12T00:57:40.020Z,102066.06
2024-04-12T01:00:10.332Z,102065.50
2024-04-12T01:02:44.328Z,102060.44
2024-04-12T01:05:14.308Z,102068.72
2024-04-12T01:07:50.934Z,102068.63
2024-04-12T01:10:26.047Z,102068.84
2024-04-12T01:12:57.429Z,102062.25
2024-04-12T01:15:26.307Z,102066.81
2024-04-12T01:17:58.130Z,102061.56
2024-04-12T01:20:26.614Z,102064.22
2024-04-12T01:22:59.735Z,102060.69
2024-04-12T01:25:30.174Z,102051.56
2024-04-12T01:27:59.807Z,102048.63
2024-04-12T01:30:26.695Z,102045.28
2024-04-12T01:32:58.701Z,102038.66
2024-04-12T01:35:26.086Z,102037.38
2024-04-12T01:37:59.156Z,102043.13
2024-04-12T01:40:30.620Z,102036.97
2024-04-12T01:43:01.746Z,102042.31
2024-04-12T01:45:29.280Z,102048.78
2024-04-12T01:47:59.137Z,102046.13
2024-04-12T01:50:25.952Z,102052.66
2024-04-12T01:52:58.707Z,102040.31
2024-04-12T01:55:33.778Z,102044.19
2024-04-12T01:58:03.202Z,102044.50
2024-04-12T02:00:29.919Z,102046.59
2024-04-12T02:03:00.282Z,102042.38
2024-04-12T02:05:30.834Z,102045.78
2024-04-12T02:08:00.724Z,102038.53
2024-04-12T02:10:35.258Z,102047.69
2024-04-12T02:13:04.872Z,102051.53
2024-04-12T02:15:31.703Z,102050.59
2024-04-12T02:18:04.244Z,102049.00
2024-04-12T02:20:35.773Z,102050.13
2024-04-12T02:23:06.346Z,102047.94
2024-04-12T02:25:37.525Z,102056.53
2024-04-12T02:28:09.640Z,102060.88
2024-04-12T02:30:42.588Z,102072.19
2024-04-12T02:33:12.778Z,102054.69
2024-04-12T02:35:42.650Z,102060.94
2024-04-12T02:38:16.726Z,102059.19
2024-04-12T02:40:47.871Z,102054.28
2024-04-12T02:43:19.290Z,102058.72
2024-04-12T02:45:49.458Z,102061.06
2024-04-12T02:48:21.366Z,102053.91
2024-04-12T02:50:49.601Z,102064.16
2024-04-12T02:53:21.381Z,102071.88
2024-04-12T02:56:01.770Z,102066.13
2024-04-12T02:58:39.102Z,102061.31
2024-04-12T03:01:09.033Z,102068.97
2024-04-12T03:03:42.448Z,102061.00
2024-04-12T03:06:11.326Z,102067.69
2024-04-12T03:08:41.203Z,102056.16
2024-04-12T03:11:15.670Z,102058.56
2024-04-12T03:13:47.173Z,102053.47
2024-04-12T03:16:14.950Z,102053.13
2024-04-12T03:18:46.926Z,102047.84
2024-04-12T03:21:17.219Z,102052.16
2024-04-12T03:23:48.313Z,102049.59
2024-04-12T03:26:23.012Z,102042.22
2024-04-12T03:28:55.254Z,102046.78
2024-04-12T03:31:28.257Z,102049.50
2024-04-12T03:34:01.646Z,102043.66
2024-04-12T03:36:41.174Z,102048.34
2024-04-12T03:39:31.350Z,102032.28
2024-04-12T03:42:06.233Z,102040.41
2024-04-12T03:44:46.594Z,102046.44
2024-04-12T03:47:14.903Z,102040.03
2024-04-12T03:49:45.826Z,102028.03
2024-04-12T03:52:14.910Z,102034.09
2024-04-12T03:54:47.629Z,102030.75
2024-04-12T03:57:30.188Z,102031.50
2024-04-12T04:00:01.780Z,102027.38
2024-04-12T04:02:31.545Z,102029.13
2024-04-12T04:05:14.859Z,102032.44
2024-04-12T04:07:42.953Z,102036.78
2024-04-12T04:10:16.469Z,102028.34
2024-04-12T04:12:51.066Z,102030.81
2024-04-12T04:15:20.677Z,102041.91
2024-04-12T04:17:51.109Z,102046.56
2024-04-12T04:20:18.549Z,102049.03
2024-04-12T04:22:50.804Z,102054.94
2024-04-12T04:25:22.335Z,102044.81
2024-04-12T04:27:58.860Z,102055.41
2024-04-12T04:30:26.799Z,102061.97
2024-04-12T04:32:56.556Z,102056.22
2024-04-12T04:35:28.547Z,102059.44
2024-04-12T04:37:59.062Z,102052.53
2024-04-12T04:40:26.574Z,102046.47
2024-04-12T04:42:59.023Z,102042.97
2024-04-12T04:45:32.681Z,102047.84
2024-04-12T04:48:02.135Z,102051.00
2024-04-12T04:50:29.358Z,102043.28
2024-04-12T04:53:03.828Z,102045.59
2024-04-12T04:55:33.500Z,102056.72
2024-04-12T04:58:09.937Z,102054.31
2024-04-12T05:00:42.405Z,102057.38
2024-04-12T05:03:15.446Z,102065.16
2024-04-12T05:05:44.088Z,102069.38
2024-04-12T05:08:15.973Z,102071.22
2024-04-12T05:10:43.106Z,102072.56
2024-04-12T05:13:18.437Z,102073.56
2024-04-12T05:15:51.226Z,102081.13
2024-04-12T05:18:21.721Z,102080.69
2024-04-12T05:20:49.536Z,102082.34
2024-04-12T05:23:21.210Z,102081.19
2024-04-12T05:25:49.708Z,102080.19
2024-04-12T05:28:21.949Z,102085.59
2024-04-12T05:30:50.925Z,102096.19
2024-04-12T05:33:21.586Z,102099.22
2024-04-12T05:35:49.198Z,102100.34
2024-04-12T05:38:23.104Z,102094.41
2024-04-12T05:40:53.596Z,102081.69
2024-04-12T05:43:26.231Z,102089.72
2024-04-12T05:45:54.654Z,102095.13
2024-04-12T05:48:25.395Z,102100.22
2024-04-12T05:50:55.694Z,102095.50
2024-04-12T05:53:27.268Z,102094.13
2024-04-12T05:56:14.220Z,102086.22
2024-04-12T05:58:46.442Z,102095.16
2024-04-12T06:01:13.267Z,102090.97
2024-04-12T06:03:53.544Z,102098.03
2024-04-12T06:06:25.632Z,102097.66
2024-04-12T06:08:53.906Z,102106.25
2024-04-12T06:11:23.859Z,102103.75
2024-04-12T06:13:55.758Z,102109.06
2024-04-12T06:16:26.125Z,102097.50
2024-04-12T06:18:53.233Z,102105.31
2024-04-12T06:21:23.707Z,102099.94
2024-04-12T06:23:56.662Z,102109.13
2024-04-12T06:26:27.159Z,102105.88
2024-04-12T06:29:02.926Z,102100.94
2024-04-12T06:31:36.567Z,102099.81
2024-04-12T06:34:05.838Z,102104.44
2024-04-12T06:36:36.172Z,102100.47
2024-04-12T06:39:05.999Z,102103.84
2024-04-12T06:41:35.795Z,102105.47
2024-04-12T06:44:08.481Z,102111.91
2024-04-12T06:46:38.046Z,102115.41
2024-04-12T06:49:09.238Z,102111.69
2024-04-12T06:51:45.203Z,102110.72
2024-04-12T06:54:15.460Z,102108.72
2024-04-12T06:56:44.936Z,102113.44
2024-04-12T06:59:14.728Z,102098.25
2024-04-12T07:01:45.141Z,102099.19
2024-04-12T07:04:12.276Z,102091.31
2024-04-12T07:06:44.533Z,102085.47
2024-04-12T07:09:11.853Z,102076.06
2024-04-12T07:11:42.419Z,102070.97
2024-04-12T07:14:09.299Z,102080.47
2024-04-12T07:16:41.274Z,102080.03
2024-04-12T07:19:10.271Z,102085.25
2024-04-12T07:21:40.016Z,102093.00
2024-04-12T07:24:07.520Z,102099.09
2024-04-12T07:26:38.654Z,102104.75
2024-04-12T07:29:07.869Z,102109.50
2024-04-12T07:31:42.722Z,102109.78
2024-04-12T07:34:12.279Z,102123.56
2024-04-12T07:36:42.167Z,102121.78
2024-04-12T07:39:09.753Z,102110.78
2024-04-12T07:41:45.249Z,102115.22
2024-04-12T07:44:13.722Z,102109.53
2024-04-12T07:46:50.415Z,102109.59
2024-04-12T07:49:20.156Z,102111.97
2024-04-12T07:51:50.801Z,102106.06
2024-04-12T07:54:17.876Z,102110.19
2024-04-12T07:57:08.516Z,102110.75
2024-04-12T07:59:39.551Z,102114.03
2024-04-12T08:02:20.882Z,102113.63
2024-04-12T08:04:50.628Z,102106.44
2024-04-12T08:07:31.056Z,102109.81
2024-04-12T08:10:11.013Z,102101.88
2024-04-12T08:12:40.394Z,102110.56
2024-04-12T08:15:08.761Z,102108.47
2024-04-12T08:17:41.753Z,102095.72
2024-04-12T08:20:15.043Z,102104.41
2024-04-12T08:22:45.837Z,102102.25
2024-04-12T08:25:20.128Z,102101.84
2024-04-12T08:27:55.807Z,102104.28
2024-04-12T08:30:23.366Z,102112.72
2024-04-12T08:32:57.077Z,102104.88
2024-04-12T08:35:26.767Z,102109.53
2024-04-12T08:37:56.254Z,102102.59
2024-04-12T08:40:27.220Z,102112.25
2024-04-12T08:43:11.245Z,102105.22
2024-04-12T08:45:44.822Z,102105.03
2024-04-12T08:48:19.453Z,102097.69
2024-04-12T08:51:05.404Z,102107.03
2024-04-12T08:53:36.768Z,102102.03
2024-04-12T08:56:03.753Z,102099.09
2024-04-12T08:58:33.246Z,102099.59
2024-04-12T09:01:02.957Z,102106.31
2024-04-12T09:03:44.158Z,102111.03
2024-04-12T09:06:18.028Z,102105.13
2024-04-12T09:08:48.735Z,102108.75
2024-04-12T09:11:15.982Z,102112.44
2024-04-12T09:13:48.543Z,102099.56
2024-04-12T09:16:20.469Z,102100.63
2024-04-12T09:18:52.501Z,102085.38
2024-04-12T09:21:26.707Z,102083.66
2024-04-12T09:23:57.897Z,102077.81
2024-04-12T09:26:26.363Z,102086.16
2024-04-12T09:29:03.270Z,102090.16
2024-04-12T09:31:50.218Z,102080.03
2024-04-12T09:34:33.744Z,102078.94
2024-04-12T09:37:28.646Z,102079.09
2024-04-12T09:40:05.983Z,102087.22
2024-04-12T09:42:46.365Z,102081.31
2024-04-12T09:45:18.508Z,102079.06
2024-04-12T09:48:05.749Z,102085.09
2024-04-12T09:50:51.731Z,102081.84
2024-04-12T09:53:40.026Z,102077.81
2024-04-12T09:56:26.616Z,102072.72
2024-04-12T09:59:16.055Z,102081.97
2024-04-12T10:02:11.861Z,102068.94
2024-04-12T10:04:57.684Z,102068.03
2024-04-12T10:07:45.296Z,102070.94
2024-04-12T10:10:34.189Z,102064.72
2024-04-12T10:13:23.214Z,102065.78
2024-04-12T10:16:13.016Z,102061.44
2024-04-12T10:18:57.475Z,102065.91
2024-04-12T10:21:43.175Z,102067.19
2024-04-12T10:24:28.853Z,102062.69
2024-04-12T10:27:18.190Z,102056.72
2024-04-12T10:30:04.296Z,102060.78
2024-04-12T10:32:52.073Z,102055.38
2024-04-12T10:35:40.086Z,102058.78
2024-04-12T10:38:22.809Z,102059.56
2024-04-12T10:41:04.126Z,102067.06
2024-04-12T10:43:42.777Z,102063.69
2024-04-12T10:46:12.443Z,102054.31
2024-04-12T10:48:43.654Z,102057.97
2024-04-12T10:51:14.596Z,102052.97
2024-04-12T10:53:49.698Z,102052.63
2024-04-12T10:56:23.094Z,102049.53
2024-04-12T10:58:57.969Z,102056.03
2024-04-12T11:01:28.428Z,102054.94
2024-04-12T11:04:04.245Z,102040.38
2024-04-12T11:06:35.231Z,102033.78
2024-04-12T11:09:07.155Z,102029.88
2024-04-12T11:11:35.589Z,102028.47
2024-04-12T11:14:16.769Z,102029.72
2024-04-12T11:17:08.199Z,102026.09
2024-04-12T11:19:55.076Z,102034.97
2024-04-12T11:22:43.163Z,102016.50
2024-04-12T11:25:31.924Z,102026.66
2024-04-12T11:28:17.730Z,102029.56
2024-04-12T11:31:08.942Z,102026.50
2024-04-12T11:33:47.519Z,102021.72
2024-04-12T11:36:21.288Z,102007.63
2024-04-12T11:38:55.763Z,102013.88
2024-04-12T11:41:25.644Z,102010.06
2024-04-12T11:43:56.501Z,102006.50
2024-04-12T11:46:25.982Z,102002.50
2024-04-12T11:48:58.168Z,102003.00
2024-04-12T11:51:25.400Z,102005.63
2024-04-12T11:53:55.448Z,102013.13
2024-04-12T11:56:25.343Z,102000.78
2024-04-12T11:58:59.298Z,101997.69
2024-04-12T12:01:30.186Z,101999.50
2024-04-12T12:03:59.924Z,101994.81
2024-04-12T12:06:26.974Z,101994.59
2024-04-12T12:08:58.680Z,101980.63
2024-04-12T12:11:25.706Z,101985.78
2024-04-12T12:13:55.067Z,101994.50
2024-04-12T12:16:21.856Z,101983.00
2024-04-12T12:18:54.124Z,101977.59
2024-04-12T12:21:21.464Z,101985.63
2024-04-12T12:23:51.486Z,101974.84
2024-04-12T12:26:23.335Z,101988.91
2024-04-12T12:28:52.812Z,101984.66
2024-04-12T12:31:19.799Z,101982.34
2024-04-12T12:33:51.632Z,101992.44
2024-04-12T12:36:22.822Z,101991.34
2024-04-12T12:38:52.435Z,101982.09
2024-04-12T12:41:19.157Z,101973.38
2024-04-12T12:43:48.804Z,101971.44
2024-04-12T12:46:18.378Z,101972.59
2024-04-12T12:48:50.258Z,101966.13
2024-04-12T12:51:27.455Z,101961.59
2024-04-12T12:54:01.336Z,101965.22
2024-04-12T12:56:32.749Z,101961.97
2024-04-12T12:59:04.282Z,101964.34
2024-04-12T13:01:36.353Z,101948.84
2024-04-12T13:04:08.590Z,101942.72
2024-04-12T13:06:38.501Z,101941.50
2024-04-12T13:09:18.927Z,101942.72
2024-04-12T13:11:47.211Z,101954.25
2024-04-12T13:14:18.964Z,101951.91
2024-04-12T13:16:45.848Z,101956.50
2024-04-12T13:19:17.927Z,101939.50
2024-04-12T13:21:50.702Z,101934.84
2024-04-12T13:24:21.138Z,101934.28
2024-04-12T13:26:52.070Z,101929.41
2024-04-12T13:29:22.090Z,101921.63
2024-04-12T13:31:51.746Z,101924.03
2024-04-12T13:34:23.451Z,101919.81
2024-04-12T13:36:54.372Z,101926.44
2024-04-12T13:39:26.433Z,101911.63
2024-04-12T13:41:57.701Z,101915.13
2024-04-12T13:44:50.184Z,101907.19
2024-04-12T13:47:35.532Z,101900.03
2024-04-12T13:50:28.590Z,101909.34
2024-04-12T13:53:01.043Z,101899.88
2024-04-12T13:55:36.158Z,101895.28
2024-04-12T13:58:03.058Z,101889.19
2024-04-12T14:00:37.492Z,101891.72
2024-04-12T14:03:08.562Z,101884.25
2024-04-12T14:05:38.551Z,101875.81
2024-04-12T14:08:08.666Z,101876.53
2024-04-12T14:10:41.671Z,101880.81
2024-04-12T14:13:18.222Z,101873.16
2024-04-12T14:15:48.528Z,101871.50
2024-04-12T14:18:17.693Z,101866.75
2024-04-12T14:20:47.633Z,101870.50
2024-04-12T14:23:16.966Z,101864.19
2024-04-12T14:25:46.474Z,101851.44
2024-04-12T14:28:13.201Z,101847.38
2024-04-12T14:30:42.651Z,101848.81
2024-04-12T14:33:09.471Z,101843.59
2024-04-12T14:35:42.874Z,101835.22
2024-04-12T14:38:16.945Z,101843.22
2024-04-12T14:40:53.212Z,101846.59
2024-04-12T14:43:23.216Z,101853.22
2024-04-12T14:45:49.989Z,101845.19
2024-04-12T14:48:19.447Z,101843.00
2024-04-12T14:50:50.392Z,101833.84
2024-04-12T14:53:19.960Z,101839.19
2024-04-12T14:55:50.612Z,101837.50
2024-04-12T14:58:21.629Z,101826.91
2024-04-12T15:00:49.625Z,101827.66
2024-04-12T15:03:35.484Z,101825.56
2024-04-12T15:06:21.229Z,101816.97
2024-04-12T15:09:07.022Z,101820.00
2024-04-12T15:11:54.900Z,101828.00
2024-04-12T15:14:40.597Z,101824.22
2024-04-12T15:17:25.994Z,101818.50
2024-04-12T15:20:11.629Z,101819.88
2024-04-12T15:22:58.020Z,101808.47
2024-04-12T15:25:43.520Z,101813.53
2024-04-12T15:28:31.715Z,101803.09
2024-04-12T15:31:17.661Z,101803.63
2024-04-12T15:34:03.154Z,101799.66
2024-04-12T15:36:48.516Z,101792.59
2024-04-12T15:39:33.544Z,101801.06
2024-04-12T15:42:18.991Z,101799.34
2024-04-12T15:45:07.447Z,101799.47
2024-04-12T15:47:34.506Z,101784.44
2024-04-12T15:50:20.952Z,101788.69
2024-04-12T15:53:10.769Z,101777.81
2024-04-12T15:55:58.393Z,101775.41
2024-04-12T15:58:48.098Z,101766.09
2024-04-12T16:01:36.098Z,101774.94
2024-04-12T16:04:25.934Z,101772.25
2024-04-12T16:07:11.381Z,101777.41
2024-04-12T16:10:03.333Z,101774.56
2024-04-12T16:12:37.137Z,101775.09
2024-04-12T16:15:07.699Z,101773.38
2024-04-12T16:17:43.332Z,101765.63
2024-04-12T16:20:15.533Z,101765.56
2024-04-12T16:22:42.245Z,101766.03
2024-04-12T16:25:15.360Z,101768.53
2024-04-12T16:27:42.066Z,101765.81
2024-04-12T16:30:12.914Z,101774.34
2024-04-12T16:32:45.414Z,101751.72
2024-04-12T16:35:14.851Z,101754.88
2024-04-12T16:37:44.482Z,101757.00
2024-04-12T16:40:15.810Z,101760.56
2024-04-12T16:42:42.552Z,101763.84
2024-04-12T16:45:12.014Z,101763.75
2024-04-12T16:47:38.884Z,101753.56
2024-04-12T16:50:10.928Z,101743.88
2024-04-12T16:52:37.700Z,101756.38
2024-04-12T16:55:12.168Z,101759.75
2024-04-12T16:57:39.087Z,101756.84
2024-04-12T17:00:10.648Z,101752.13
2024-04-12T17:02:37.561Z,101751.78
2024-04-12T17:05:07.554Z,101741.34
2024-04-12T17:07:40.079Z,101751.94
2024-04-12T17:10:11.379Z,101742.13
2024-04-12T17:12:41.230Z,101736.69
2024-04-12T17:15:13.321Z,101745.09
2024-04-12T17:17:40.520Z,101738.81
2024-04-12T17:20:12.692Z,101741.31
2024-04-12T17:22:42.091Z,101742.38
2024-04-12T17:25:14.526Z,101741.13
2024-04-12T17:27:42.914Z,101745.25
2024-04-12T17:30:14.274Z,101737.25
2024-04-12T17:32:41.443Z,101736.31
2024-04-12T17:35:11.525Z,101743.13
2024-04-12T17:37:38.355Z,101732.44
2024-04-12T17:40:13.068Z,101737.47
2024-04-12T17:42:40.201Z,101742.69
2024-04-12T17:45:10.774Z,101740.69
2024-04-12T17:47:37.640Z,101735.81
2024-04-12T17:50:08.008Z,101734.63
2024-04-12T17:52:35.010Z,101744.16
2024-04-12T17:55:04.786Z,101740.09
2024-04-12T17:57:34.573Z,101740.78
2024-04-12T18:00:09.886Z,101740.41
2024-04-12T18:02:37.107Z,101727.38
2024-04-12T18:05:07.243Z,101735.66
2024-04-12T18:07:37.151Z,101729.88
2024-04-12T18:10:08.278Z,101727.25
2024-04-12T18:12:37.966Z,101735.13
2024-04-12T18:15:08.525Z,101737.56
2024-04-12T18:17:35.614Z,101738.66
2024-04-12T18:20:10.420Z,101738.69
2024-04-12T18:22:40.996Z,101735.00
2024-04-12T18:25:15.416Z,101725.13
2024-04-12T18:27:51.373Z,101729.53
2024-04-12T18:30:21.605Z,101735.34
2024-04-12T18:32:49.113Z,101740.84
2024-04-12T18:35:20.899Z,101740.25
2024-04-12T18:38:07.638Z,101737.19
2024-04-12T18:40:53.341Z,101738.25
2024-04-12T18:43:41.756Z,101742.47
2024-04-12T18:46:11.189Z,101750.44
2024-04-12T18:48:41.566Z,101754.03
2024-04-12T18:51:12.986Z,101755.06
2024-04-12T18:53:42.530Z,101753.53
2024-04-12T18:56:13.810Z,101759.53
2024-04-12T18:58:47.377Z,101756.13
2024-04-12T19:01:14.124Z,101763.66
2024-04-12T19:03:46.832Z,101764.22
2024-04-12T19:06:21.510Z,101766.06
2024-04-12T19:08:51.180Z,101765.19
2024-04-12T19:11:18.309Z,101762.88
2024-04-12T19:13:53.218Z,101765.22
2024-04-12T19:16:22.820Z,101764.22
2024-04-12T19:18:52.271Z,101767.66
2024-04-12T19:21:24.275Z,101763.47
2024-04-12T19:23:55.710Z,101770.28
2024-04-12T19:26:25.533Z,101765.19
2024-04-12T19:28:58.460Z,101769.22
2024-04-12T19:31:26.148Z,101773.59
2024-04-12T19:33:56.649Z,101770.25
2024-04-12T19:36:24.127Z,101777.03
2024-04-12T19:39:01.120Z,101765.19
2024-04-12T19:41:33.627Z,101768.75
2024-04-12T19:44:08.841Z,101775.63
2024-04-12T19:46:36.181Z,101772.06
2024-04-12T19:49:11.838Z,101771.97
2024-04-12T19:51:45.276Z,101760.44
2024-04-12T19:54:12.367Z,101768.03
2024-04-12T19:56:42.139Z,101758.00
2024-04-12T19:59:12.579Z,101764.09
2024-04-12T20:01:46.323Z,101765.88
2024-04-12T20:04:16.300Z,101758.16
2024-04-12T20:06:45.997Z,101764.38
2024-04-12T20:09:15.929Z,101757.56
2024-04-12T20:11:45.315Z,101759.28
2024-04-12T20:14:20.708Z,101762.19
2024-04-12T20:16:53.179Z,101762.41
2024-04-12T20:19:20.415Z,101764.56
2024-04-12T20:21:54.174Z,101761.94
2024-04-12T20:24:29.444Z,101763.72
2024-04-12T20:27:02.143Z,101769.34
2024-04-12T20:29:31.675Z,101769.41
2024-04-12T20:32:21.496Z,101777.78
2024-04-12T20:35:09.791Z,101765.81
2024-04-12T20:37:39.279Z,101764.03
2024-04-12T20:40:07.923Z,101765.06
2024-04-12T20:42:37.425Z,101767.53
2024-04-12T20:45:08.890Z,101754.94
2024-04-12T20:47:38.407Z,101760.50
2024-04-12T20:50:06.124Z,101762.78
2024-04-12T20:52:38.580Z,101762.63
2024-04-12T20:55:06.511Z,101765.69
2024-04-12T20:57:36.070Z,101761.41
2024-04-12T21:00:03.381Z,101757.47
2024-04-12T21:02:36.203Z,101754.94
2024-04-12T21:05:10.244Z,101761.28
2024-04-12T21:07:40.376Z,101761.78
2024-04-12T21:10:12.110Z,101758.53
2024-04-12T21:12:39.970Z,101756.69
2024-04-12T21:15:10.072Z,101756.09
2024-04-12T21:17:40.669Z,101754.06
2024-04-12T21:20:16.438Z,101752.81
2024-04-12T21:22:46.388Z,101768.31
2024-04-12T21:25:15.717Z,101753.06
2024-04-12T21:27:42.465Z,101752.53
2024-04-12T21:30:12.957Z,101756.47
2024-04-12T21:32:42.650Z,101744.97
2024-04-12T21:35:12.201Z,101750.03
2024-04-12T21:37:39.067Z,101757.88
2024-04-12T21:40:09.529Z,101761.31
2024-04-12T21:42:36.343Z,101754.75
2024-04-12T21:45:08.984Z,101752.97
2024-04-12T21:47:36.974Z,101754.44
2024-04-12T21:50:10.254Z,101748.13
2024-04-12T21:52:37.051Z,101756.34
2024-04-12T21:55:06.533Z,101742.19
2024-04-12T21:57:34.682Z,101739.53
2024-04-12T22:00:05.250Z,101742.00
2024-04-12T22:02:32.477Z,101740.47
2024-04-12T22:05:01.893Z,101743.22
2024-04-12T22:07:31.504Z,101749.41
2024-04-12T22:10:00.841Z,101744.69
2024-04-12T22:12:27.548Z,101746.31
2024-04-12T22:14:57.256Z,101743.44
2024-04-12T22:17:24.122Z,101740.69
2024-04-12T22:19:53.712Z,101741.16
2024-04-12T22:22:20.567Z,101741.56
2024-04-12T22:24:54.391Z,101733.00
2024-04-12T22:27:24.432Z,101734.84
2024-04-12T22:29:53.915Z,101731.41
2024-04-12T22:32:25.847Z,101737.72
2024-04-12T22:34:55.931Z,101745.97
2024-04-12T22:37:23.874Z,101742.19
2024-04-12T22:39:58.438Z,101736.13
2024-04-12T22:42:25.174Z,101729.03
2024-04-12T22:44:57.869Z,101730.97
2024-04-12T22:47:24.695Z,101730.53
2024-04-12T22:49:56.009Z,101726.97
2024-04-12T22:52:22.999Z,101736.84
2024-04-12T22:54:52.324Z,101743.22
2024-04-12T22:57:22.080Z,101741.06
2024-04-12T22:59:51.832Z,101737.50
2024-04-12T23:02:18.597Z,101735.81
2024-04-12T23:04:50.879Z,101724.09
2024-04-12T23:07:17.642Z,101720.78
2024-04-12T23:09:50.114Z,101719.69
2024-04-12T23:12:17.942Z,101727.75
2024-04-12T23:14:51.302Z,101731.91
2024-04-12T23:17:21.054Z,101731.00
2024-04-12T23:19:51.555Z,101731.97
2024-04-12T23:22:18.594Z,101721.31
2024-04-12T23:24:50.951Z,101724.84
2024-04-12T23:27:20.727Z,101727.19
2024-04-12T23:29:54.515Z,101730.72
2024-04-12T23:32:21.482Z,101726.84
2024-04-12T23:34:50.832Z,101726.13
2024-04-12T23:37:17.604Z,101726.22
2024-04-12T23:39:47.044Z,101725.38
2024-04-12T23:42:13.841Z,101724.13
2024-04-12T23:44:44.388Z,101730.63
2024-04-12T23:47:16.445Z,101729.28
2024-04-12T23:49:47.599Z,101721.41
2024-04-12T23:52:14.272Z,101714.47
2024-04-12T23:54:43.626Z,101720.75
2024-04-12T23:57:10.400Z,101716.41
2024-04-12T23:59:39.940Z,101721.19
